Dugginsville, Missouri
Current Conditions -  °F | °C
As of 2:53 PM on Tuesday 21 Oct 2014 (Local Time) from KBPK Reporting Station
Clear Clear  
Wind Chill: 73°   Ceiling: Unl
Heat Index: 73°   Visibility: 10mi
Dew Point: 47°   Wind: 0mph
Humidity: 39%   Direction: NA
Pressure: 30.08"   Gusts: NA
Location:  36.5847°N, 92.7117°W
Report Text: KBPK 211953Z AUTO 00000KT 10SM CLR 23/08 A3008 RMK AO2 SLP178 T02280083
Loading
Personal Weather Stations






























Interactive Weather Map
Tropical Storm Tracking
New forecast layout! Learn more

10-Day Weather Forecast

Advertisements
Track Severe Weather on mobile